createdAt,value
2022-08-08T00:00:52.784Z,43.65
2022-08-08T00:00:53.524Z,43.88
2022-08-08T00:02:03.659Z,49.42
2022-08-08T00:02:48.628Z,43.26
2022-08-08T00:03:47.236Z,43.51
2022-08-08T00:04:49.505Z,44.32
2022-08-08T00:06:02.880Z,44.12
2022-08-08T00:06:47.188Z,44.11
2022-08-08T00:07:47.709Z,49.26
2022-08-08T00:08:49.180Z,42.76
2022-08-08T00:09:47.293Z,49.47
2022-08-08T00:10:46.755Z,44.42
2022-08-08T00:12:07.171Z,43.61
2022-08-08T00:12:56.353Z,49.07
2022-08-08T00:14:15.789Z,49.20
2022-08-08T00:14:57.220Z,42.11
2022-08-08T00:15:57.213Z,43.01
2022-08-08T00:16:49.194Z,42.85
2022-08-08T00:18:02.384Z,42.69
2022-08-08T00:18:49.389Z,43.66
2022-08-08T00:19:51.382Z,42.47
2022-08-08T00:20:49.423Z,42.91
2022-08-08T00:21:48.167Z,51.53
2022-08-08T00:22:46.234Z,43.56
2022-08-08T00:23:47.870Z,43.70
2022-08-08T00:24:48.706Z,49.82
2022-08-08T00:25:51.691Z,47.79
2022-08-08T00:26:50.165Z,43.47
2022-08-08T00:27:44.915Z,42.61
2022-08-08T00:28:44.988Z,43.05
2022-08-08T00:29:46.986Z,45.77
2022-08-08T00:30:45.152Z,44.19
2022-08-08T00:32:28.946Z,44.04
2022-08-08T00:32:46.215Z,52.37
2022-08-08T00:34:17.476Z,50.19
2022-08-08T00:34:46.224Z,43.69
2022-08-08T00:35:48.873Z,44.21
2022-08-08T00:36:47.675Z,44.15
2022-08-08T00:38:01.239Z,43.41
2022-08-08T00:38:51.798Z,43.51
2022-08-08T00:41:09.199Z,44.68
2022-08-08T00:41:12.597Z,49.40
2022-08-08T00:42:08.266Z,44.40
2022-08-08T00:42:46.552Z,43.85
2022-08-08T00:43:59.057Z,43.69
2022-08-08T00:44:47.683Z,48.08
2022-08-08T00:45:48.149Z,45.47
2022-08-08T00:46:57.062Z,44.39
2022-08-08T00:48:05.343Z,43.64
2022-08-08T00:48:59.427Z,46.45
2022-08-08T00:49:58.528Z,43.54
2022-08-08T00:50:53.303Z,44.15
2022-08-08T00:51:46.848Z,44.91
2022-08-08T00:52:51.677Z,50.05
2022-08-08T00:53:57.112Z,43.41
2022-08-08T00:54:45.977Z,43.78
2022-08-08T00:55:53.112Z,43.31
2022-08-08T00:56:46.687Z,43.34
2022-08-08T00:57:48.571Z,43.15
2022-08-08T00:58:54.483Z,43.05
2022-08-08T00:59:46.826Z,43.37
2022-08-08T01:00:50.169Z,44.68
2022-08-08T01:01:48.522Z,43.52
2022-08-08T01:04:01.626Z,43.76
2022-08-08T01:04:02.546Z,43.72
2022-08-08T01:04:47.575Z,51.91
2022-08-08T01:05:59.397Z,49.44
2022-08-08T01:06:48.123Z,45.49
2022-08-08T01:07:55.942Z,54.99
2022-08-08T01:08:51.942Z,45.47
2022-08-08T01:09:48.645Z,52.01
2022-08-08T01:10:50.852Z,44.73
2022-08-08T01:11:48.426Z,44.34
2022-08-08T01:12:48.179Z,44.71
2022-08-08T01:13:52.866Z,43.48
2022-08-08T01:14:54.778Z,48.91
2022-08-08T01:15:53.472Z,48.60
2022-08-08T01:16:46.679Z,51.49
2022-08-08T01:17:53.752Z,47.02
2022-08-08T01:18:52.782Z,50.10
2022-08-08T01:20:01.512Z,47.08
2022-08-08T01:20:47.282Z,50.91
2022-08-08T01:22:11.790Z,45.40
2022-08-08T01:30:55.959Z,45.68
2022-08-08T01:32:12.889Z,51.46
2022-08-08T01:32:57.742Z,54.68
2022-08-08T01:34:00.485Z,50.18
2022-08-08T01:34:56.850Z,45.91
2022-08-08T01:36:01.283Z,55.25
2022-08-08T01:36:57.339Z,45.33
2022-08-08T01:37:59.008Z,46.01
2022-08-08T01:38:56.781Z,46.48
2022-08-08T01:39:56.953Z,44.80
2022-08-08T01:40:57.965Z,45.74
2022-08-08T01:41:58.032Z,46.28
2022-08-08T01:42:57.306Z,49.79
2022-08-08T01:43:59.932Z,44.72
2022-08-08T02:03:54.401Z,50.86
2022-08-08T02:04:35.440Z,51.41
2022-08-08T02:05:56.568Z,45.31
2022-08-08T02:06:41.003Z,51.17
2022-08-08T02:07:41.590Z,46.22
2022-08-08T02:08:36.541Z,46.99
2022-08-08T02:10:02.478Z,45.91
2022-08-08T02:10:37.301Z,45.61
2022-08-08T02:11:53.065Z,56.97
2022-08-08T02:12:36.523Z,46.01
2022-08-08T02:13:54.809Z,45.84
2022-08-08T02:14:56.017Z,48.92
2022-08-08T02:15:38.612Z,51.43
2022-08-08T02:16:35.475Z,45.19
2022-08-08T02:17:42.526Z,45.69
2022-08-08T02:18:36.490Z,46.77
2022-08-08T02:19:57.967Z,50.58
2022-08-08T02:21:02.102Z,45.87
2022-08-08T02:21:36.451Z,52.25
2022-08-08T02:22:52.331Z,58.33
2022-08-08T02:23:36.421Z,50.89
2022-08-08T02:24:35.394Z,52.52
2022-08-08T02:25:47.223Z,48.67
2022-08-08T02:26:36.403Z,57.26
2022-08-08T02:27:38.849Z,46.49
2022-08-08T02:28:36.403Z,55.07
2022-08-08T02:29:46.995Z,49.02
2022-08-08T02:30:36.382Z,50.61
2022-08-08T02:31:59.199Z,52.19
2022-08-08T02:32:36.532Z,46.88
2022-08-08T02:33:41.462Z,46.18
2022-08-08T02:34:36.399Z,59.24
2022-08-08T02:35:35.808Z,45.92
2022-08-08T02:36:36.315Z,45.86
2022-08-08T02:37:53.359Z,51.37
2022-08-08T02:38:36.285Z,49.62
2022-08-08T02:39:40.415Z,50.85
2022-08-08T02:40:36.375Z,49.24
2022-08-08T02:42:04.058Z,55.16
2022-08-08T02:42:41.735Z,58.39
2022-08-08T02:44:38.062Z,46.89
2022-08-08T02:44:56.463Z,49.41
2022-08-08T02:45:51.672Z,48.39
2022-08-08T02:46:36.297Z,51.26
2022-08-08T02:47:35.205Z,55.31
2022-08-08T02:48:36.211Z,47.71
2022-08-08T02:49:50.469Z,54.29
2022-08-08T02:50:36.237Z,55.92
2022-08-08T02:51:46.463Z,62.73
2022-08-08T02:52:38.785Z,52.31
2022-08-08T02:53:35.282Z,51.84
2022-08-08T02:54:35.156Z,52.98
2022-08-08T02:55:36.508Z,51.54
2022-08-08T02:56:35.199Z,47.02
2022-08-08T02:57:40.681Z,45.55
2022-08-08T02:58:36.929Z,50.90
2022-08-08T02:59:57.130Z,51.74
2022-08-08T03:00:36.198Z,55.55
2022-08-08T03:01:39.912Z,54.80
2022-08-08T03:02:36.775Z,49.71
2022-08-08T03:05:01.157Z,60.99
2022-08-08T03:05:04.802Z,58.94
2022-08-08T03:05:45.482Z,56.98
2022-08-08T03:06:36.072Z,55.76
2022-08-08T03:07:41.814Z,51.41
2022-08-08T03:08:36.107Z,63.44
2022-08-08T03:09:35.075Z,58.41
2022-08-08T03:10:36.932Z,50.29
2022-08-08T03:12:01.695Z,47.02
2022-08-08T03:13:01.119Z,62.14
2022-08-08T03:15:58.627Z,56.93
2022-08-08T03:15:59.845Z,59.31
2022-08-08T03:16:01.859Z,61.45
2022-08-08T03:16:37.220Z,57.12
2022-08-08T03:17:39.498Z,47.55
2022-08-08T03:18:34.974Z,64.47
2022-08-08T03:19:34.997Z,58.80
2022-08-08T03:20:34.975Z,58.76
2022-08-08T03:21:54.606Z,57.81
2022-08-08T03:22:38.651Z,54.95
2022-08-08T03:23:56.341Z,60.05
2022-08-08T03:24:35.966Z,61.60
2022-08-08T03:25:36.280Z,63.64
2022-08-08T03:26:42.599Z,52.93
2022-08-08T03:27:41.971Z,63.38
2022-08-08T03:28:35.947Z,61.09
2022-08-08T03:29:54.868Z,57.18
2022-08-08T03:30:35.904Z,61.08
2022-08-08T03:32:05.236Z,61.97
2022-08-08T03:32:35.884Z,58.75
2022-08-08T03:34:00.587Z,65.49
2022-08-08T03:34:37.770Z,62.39
2022-08-08T03:35:34.869Z,59.00
2022-08-08T03:36:34.888Z,64.31
2022-08-08T03:38:53.874Z,61.83
2022-08-08T03:38:57.781Z,66.46
2022-08-08T03:39:46.068Z,62.02
2022-08-08T03:40:37.016Z,68.16
2022-08-08T03:42:13.061Z,59.27
2022-08-08T03:42:35.899Z,67.97
2022-08-08T03:43:39.734Z,63.06
2022-08-08T03:44:35.768Z,63.57
2022-08-08T03:46:05.287Z,63.44
2022-08-08T04:02:52.073Z,57.03
2022-08-08T04:03:58.640Z,68.74
2022-08-08T04:04:48.497Z,64.75
2022-08-08T04:05:50.086Z,59.34
2022-08-08T04:06:47.433Z,60.43
2022-08-08T04:07:47.433Z,60.18
2022-08-08T04:08:47.433Z,70.38
2022-08-08T04:10:00.411Z,63.96
2022-08-08T04:10:49.065Z,58.90
2022-08-08T04:11:58.699Z,65.52
2022-08-08T04:13:17.816Z,63.57
2022-08-08T04:14:17.285Z,64.69
2022-08-08T04:14:50.747Z,61.71
2022-08-08T04:15:54.420Z,55.73
2022-08-08T04:16:49.310Z,69.31
2022-08-08T04:17:58.851Z,61.32
2022-08-08T04:18:48.695Z,57.91
2022-08-08T04:19:47.343Z,61.10
2022-08-08T04:20:47.361Z,65.24
2022-08-08T04:21:47.346Z,65.71
2022-08-08T04:22:51.617Z,59.56
2022-08-08T04:24:05.233Z,65.62
2022-08-08T04:24:50.062Z,68.42
2022-08-08T04:25:47.347Z,60.92
2022-08-08T04:26:57.241Z,71.00
2022-08-08T04:28:35.562Z,63.32
2022-08-08T04:28:48.259Z,64.21
2022-08-08T04:29:55.294Z,62.87
2022-08-08T04:30:48.256Z,67.92
2022-08-08T04:31:59.854Z,64.21
2022-08-08T04:32:49.839Z,67.01
2022-08-08T04:33:47.231Z,69.69
2022-08-08T04:34:55.330Z,66.25
2022-08-08T04:35:50.785Z,67.72
2022-08-08T04:36:47.241Z,67.66
2022-08-08T04:37:47.193Z,67.40
2022-08-08T04:38:47.399Z,68.68
2022-08-08T04:40:03.928Z,64.27
2022-08-08T04:40:51.388Z,65.45
2022-08-08T04:41:48.167Z,69.17
2022-08-08T04:42:56.995Z,66.74
2022-08-08T04:43:53.941Z,69.04
2022-08-08T04:44:49.151Z,60.66
2022-08-08T04:45:47.205Z,68.88
2022-08-08T04:46:47.190Z,67.71
2022-08-08T04:47:48.122Z,66.07
2022-08-08T04:48:47.124Z,69.43
2022-08-08T04:50:00.415Z,66.58
2022-08-08T04:50:48.130Z,67.07
2022-08-08T04:51:54.895Z,66.16
2022-08-08T04:52:48.496Z,66.15
2022-08-08T04:54:36.619Z,64.08
2022-08-08T04:54:50.745Z,55.55
2022-08-08T04:55:56.272Z,65.27
2022-08-08T04:56:48.074Z,66.96
2022-08-08T04:57:47.100Z,69.31
2022-08-08T04:58:50.338Z,67.06
2022-08-08T04:59:47.039Z,64.65
2022-08-08T05:00:48.493Z,62.77
2022-08-08T05:01:48.634Z,64.70
2022-08-08T05:02:47.085Z,69.73
2022-08-08T05:04:10.768Z,65.43
2022-08-08T05:04:48.260Z,66.36
2022-08-08T05:07:53.576Z,71.03
2022-08-08T05:08:54.728Z,63.93
2022-08-08T05:09:54.688Z,64.85
2022-08-08T05:10:54.687Z,67.06
2022-08-08T05:11:57.035Z,63.95
2022-08-08T05:13:01.888Z,65.54
2022-08-08T05:14:00.949Z,63.91
2022-08-08T05:14:55.645Z,69.48
2022-08-08T05:16:52.549Z,71.10
2022-08-08T05:17:01.451Z,68.42
2022-08-08T05:17:56.639Z,67.65
2022-08-08T05:18:55.200Z,67.56
2022-08-08T05:20:12.960Z,71.95
2022-08-08T05:20:55.616Z,62.58
2022-08-08T05:21:59.611Z,66.28
2022-08-08T05:22:55.583Z,66.63
2022-08-08T05:24:04.184Z,63.93
2022-08-08T05:24:55.595Z,71.62
2022-08-08T05:25:59.832Z,70.12
2022-08-08T05:26:56.573Z,63.25
2022-08-08T05:27:54.930Z,69.01
2022-08-08T05:28:57.371Z,65.55
2022-08-08T05:29:56.532Z,71.70
2022-08-08T05:30:54.589Z,60.92
2022-08-08T05:32:03.896Z,67.78
2022-08-08T05:32:55.521Z,63.36
2022-08-08T05:33:55.197Z,61.07
2022-08-08T05:34:54.552Z,67.08
2022-08-08T05:35:55.354Z,69.38
2022-08-08T05:36:56.465Z,68.37
2022-08-08T05:37:54.795Z,68.40
2022-08-08T05:38:54.471Z,64.38
2022-08-08T05:39:54.566Z,68.07
2022-08-08T05:40:57.906Z,71.31
2022-08-08T05:41:55.935Z,61.21
2022-08-08T05:42:54.440Z,70.80
2022-08-08T05:44:03.376Z,68.81
2022-08-08T05:44:57.347Z,57.29
2022-08-08T05:46:03.322Z,64.19
2022-08-08T05:46:55.398Z,66.49
2022-08-08T05:48:00.529Z,72.72
2022-08-08T05:48:55.451Z,68.52
2022-08-08T05:49:56.036Z,62.98
2022-08-08T05:50:58.688Z,68.67
2022-08-08T05:51:55.416Z,62.25
2022-08-08T05:52:54.359Z,64.78
2022-08-08T05:54:26.747Z,62.32
2022-08-08T05:55:01.007Z,69.12
2022-08-08T05:56:07.989Z,65.12
2022-08-08T05:56:55.398Z,66.99
2022-08-08T05:58:04.867Z,64.33
2022-08-08T05:58:58.044Z,65.89
2022-08-08T06:00:00.575Z,68.56
2022-08-08T06:00:57.060Z,65.76
2022-08-08T06:01:57.257Z,62.24
2022-08-08T06:02:54.338Z,67.72
2022-08-08T06:03:55.576Z,70.49
2022-08-08T06:04:54.859Z,63.92
2022-08-08T06:05:56.797Z,65.17
2022-08-08T06:06:56.688Z,63.95
2022-08-08T06:08:02.655Z,64.82
2022-08-08T06:09:00.446Z,62.49
2022-08-08T06:10:00.831Z,63.60
2022-08-08T06:10:55.215Z,67.29
2022-08-08T06:11:55.220Z,68.26
2022-08-08T06:12:54.392Z,67.16
2022-08-08T06:13:58.393Z,66.82
2022-08-08T06:14:57.789Z,65.89
2022-08-08T06:15:56.274Z,58.95
2022-08-08T06:16:54.293Z,70.19
2022-08-08T06:18:18.450Z,65.85
2022-08-08T06:18:55.382Z,63.11
2022-08-08T06:19:54.257Z,63.55
2022-08-08T06:20:56.270Z,63.45
2022-08-08T06:21:56.682Z,63.12
2022-08-08T06:22:56.328Z,56.19
2022-08-08T06:24:03.638Z,66.30
2022-08-08T06:24:55.139Z,69.54
2022-08-08T06:26:35.674Z,65.86
2022-08-08T06:26:55.124Z,60.70
2022-08-08T06:27:54.104Z,65.44
2022-08-08T06:28:54.369Z,69.09
2022-08-08T06:30:00.197Z,60.42
2022-08-08T06:30:55.133Z,65.89
2022-08-08T06:32:09.943Z,70.20
2022-08-08T06:32:55.059Z,66.73
2022-08-08T06:34:26.474Z,66.17
2022-08-08T06:35:11.591Z,64.40
2022-08-08T06:36:07.037Z,63.20
2022-08-08T06:36:55.032Z,68.67
2022-08-08T06:37:55.760Z,66.10
2022-08-08T06:38:54.027Z,63.94
2022-08-08T06:39:55.949Z,62.03
2022-08-08T06:40:54.740Z,60.47
2022-08-08T06:41:54.040Z,68.96
2022-08-08T06:42:54.057Z,66.04
2022-08-08T06:43:57.518Z,68.81
2022-08-08T06:44:53.993Z,66.57
2022-08-08T06:45:54.023Z,65.73
2022-08-08T06:46:54.018Z,64.02
2022-08-08T06:48:01.426Z,62.74
2022-08-08T06:48:54.939Z,67.10
2022-08-08T06:49:55.757Z,65.29
2022-08-08T06:51:04.293Z,66.32
2022-08-08T06:51:58.213Z,66.40
2022-08-08T06:52:53.974Z,64.65
2022-08-08T06:53:56.127Z,64.60
2022-08-08T06:55:05.978Z,65.17
2022-08-08T06:56:02.308Z,64.35
2022-08-08T06:56:54.929Z,65.93
2022-08-08T06:57:56.439Z,58.77
2022-08-08T06:58:57.531Z,61.43
2022-08-08T07:00:13.022Z,60.74
2022-08-08T07:00:54.747Z,67.15
2022-08-08T07:02:21.275Z,63.10
2022-08-08T07:02:55.947Z,62.69
2022-08-08T07:04:40.653Z,65.36
2022-08-08T07:04:54.920Z,67.32
2022-08-08T07:06:01.663Z,65.38
2022-08-08T07:06:54.830Z,60.17
2022-08-08T07:07:55.338Z,66.58
2022-08-08T07:08:54.849Z,66.65
2022-08-08T07:10:00.021Z,59.44
2022-08-08T07:10:54.804Z,66.57
2022-08-08T07:11:53.944Z,65.39
2022-08-08T07:12:53.788Z,61.44
2022-08-08T07:14:00.593Z,66.50
2022-08-08T07:14:54.823Z,65.91
2022-08-08T07:16:10.025Z,63.83
2022-08-08T07:16:54.792Z,69.16
2022-08-08T07:18:34.449Z,61.83
2022-08-08T07:18:58.124Z,65.72
2022-08-08T07:19:59.955Z,68.46
2022-08-08T07:20:54.766Z,65.11
2022-08-08T07:21:53.765Z,63.12
2022-08-08T07:22:55.533Z,65.32
2022-08-08T07:24:01.198Z,66.55
2022-08-08T07:24:54.712Z,63.94
2022-08-08T07:25:55.596Z,67.35
2022-08-08T07:26:53.708Z,65.84
2022-08-08T07:28:02.145Z,63.38
2022-08-08T07:28:56.416Z,65.68
2022-08-08T07:29:59.610Z,59.93
2022-08-08T07:30:54.801Z,65.51
2022-08-08T07:31:53.710Z,65.79
2022-08-08T07:32:53.647Z,67.61
2022-08-08T07:33:59.683Z,67.56
2022-08-08T07:35:00.618Z,64.13
2022-08-08T07:35:54.639Z,66.63
2022-08-08T07:36:53.671Z,60.87
2022-08-08T07:38:04.293Z,67.82
2022-08-08T07:38:54.639Z,63.59
2022-08-08T07:39:57.806Z,65.46
2022-08-08T07:40:54.600Z,65.24
2022-08-08T07:42:04.562Z,65.11
2022-08-08T07:42:54.613Z,62.85
2022-08-08T07:43:54.338Z,60.25
2022-08-08T07:44:53.563Z,69.67
2022-08-08T07:46:23.136Z,63.84
2022-08-08T07:46:54.552Z,67.01
2022-08-08T07:47:53.587Z,68.97
2022-08-08T07:48:53.744Z,66.42
2022-08-08T07:49:53.543Z,66.29
2022-08-08T07:50:53.536Z,64.19
2022-08-08T07:51:54.112Z,69.12
2022-08-08T07:52:53.530Z,67.14
2022-08-08T07:54:01.999Z,68.15
2022-08-08T07:54:54.492Z,59.54
2022-08-08T07:55:53.501Z,64.68
2022-08-08T07:56:53.490Z,65.67
2022-08-08T07:57:53.529Z,65.93
2022-08-08T07:58:53.475Z,66.12
2022-08-08T07:59:53.458Z,58.33
2022-08-08T08:00:53.582Z,62.44
2022-08-08T08:02:36.712Z,66.58
2022-08-08T08:02:54.529Z,68.65
2022-08-08T08:03:53.604Z,68.31
2022-08-08T08:04:53.445Z,64.62
2022-08-08T08:05:53.923Z,63.28
2022-08-08T08:06:53.432Z,60.23
2022-08-08T08:07:57.279Z,68.40
2022-08-08T08:08:54.389Z,67.11
2022-08-08T08:09:55.512Z,65.03
2022-08-08T08:10:53.406Z,61.96
2022-08-08T08:11:53.803Z,64.31
2022-08-08T08:12:53.510Z,64.93
2022-08-08T08:14:08.328Z,61.58
2022-08-08T08:14:54.398Z,67.49
2022-08-08T08:15:54.276Z,66.00
2022-08-08T08:16:53.337Z,59.51
2022-08-08T08:17:56.565Z,64.46
2022-08-08T08:18:56.122Z,65.09
2022-08-08T08:19:55.742Z,64.56
2022-08-08T08:20:53.343Z,63.21
2022-08-08T08:21:58.431Z,63.60
2022-08-08T08:22:58.411Z,63.72
2022-08-08T08:23:53.290Z,68.62
2022-08-08T08:24:54.300Z,66.08
2022-08-08T08:25:58.253Z,65.21
2022-08-08T08:26:55.305Z,67.34
2022-08-08T08:27:53.266Z,66.61
2022-08-08T08:28:55.936Z,66.54
2022-08-08T08:29:53.446Z,67.76
2022-08-08T08:30:53.276Z,60.45
2022-08-08T08:31:57.371Z,69.28
2022-08-08T08:32:54.398Z,61.72
2022-08-08T08:33:53.248Z,65.61
2022-08-08T08:34:56.789Z,66.75
2022-08-08T08:36:19.381Z,68.83
2022-08-08T08:36:54.788Z,65.00
2022-08-08T08:38:15.857Z,68.03
2022-08-08T08:38:55.199Z,62.73
2022-08-08T08:40:00.875Z,62.23
2022-08-08T08:40:56.863Z,64.91
2022-08-08T08:41:53.168Z,65.02
2022-08-08T08:42:53.229Z,67.06
2022-08-08T08:43:53.154Z,65.73
2022-08-08T08:44:54.155Z,65.40
2022-08-08T08:45:57.130Z,65.01
2022-08-08T08:46:58.757Z,66.07
2022-08-08T08:47:58.707Z,69.62
2022-08-08T08:48:53.149Z,61.90
2022-08-08T08:49:59.788Z,59.28
2022-08-08T08:50:55.433Z,66.54
2022-08-08T08:51:56.297Z,64.92
2022-08-08T08:52:59.860Z,61.99
2022-08-08T08:54:00.872Z,63.59
2022-08-08T08:54:56.820Z,60.63
2022-08-08T08:55:53.920Z,59.94
2022-08-08T08:56:55.817Z,66.49
2022-08-08T08:58:25.982Z,63.93
2022-08-08T08:58:53.017Z,64.30
2022-08-08T08:59:58.603Z,65.23
2022-08-08T09:01:08.771Z,61.27
2022-08-08T09:01:55.912Z,67.05
2022-08-08T09:03:45.482Z,68.17
2022-08-08T09:03:54.829Z,58.08
2022-08-08T09:04:54.937Z,65.16
2022-08-08T09:05:54.840Z,66.42
2022-08-08T09:06:52.994Z,60.75
2022-08-08T09:08:12.168Z,65.97
2022-08-08T09:08:53.980Z,66.63
2022-08-08T09:09:55.078Z,58.86
2022-08-08T09:10:52.949Z,64.26
2022-08-08T09:12:06.101Z,61.61
2022-08-08T09:12:53.944Z,68.68
2022-08-08T09:13:53.632Z,61.93
2022-08-08T09:14:52.930Z,62.41
2022-08-08T09:15:52.928Z,59.46
2022-08-08T09:16:53.928Z,64.51
2022-08-08T09:17:56.002Z,64.86
2022-08-08T09:18:53.762Z,68.61
2022-08-08T09:21:58.981Z,64.50
2022-08-08T09:22:00.859Z,67.71
2022-08-08T09:22:05.896Z,63.03
2022-08-08T09:22:58.403Z,66.02
2022-08-08T09:23:54.858Z,64.70
2022-08-08T09:24:53.888Z,65.91
2022-08-08T09:26:01.985Z,66.00
2022-08-08T09:26:53.852Z,59.30
2022-08-08T09:27:58.072Z,66.53
2022-08-08T09:28:53.859Z,66.33
2022-08-08T09:29:52.963Z,58.27
2022-08-08T09:30:52.821Z,62.45
2022-08-08T09:31:55.940Z,63.54
2022-08-08T09:33:12.458Z,52.47
2022-08-08T09:34:30.587Z,61.74
2022-08-08T09:34:53.818Z,62.61
2022-08-08T09:35:52.785Z,64.45
2022-08-08T09:37:46.314Z,63.52
2022-08-08T09:38:00.826Z,65.77
2022-08-08T09:38:54.215Z,62.43
2022-08-08T09:39:52.903Z,62.17
2022-08-08T09:40:57.462Z,64.33
2022-08-08T09:42:15.180Z,65.93
2022-08-08T09:42:53.724Z,66.07
2022-08-08T09:44:05.303Z,65.39
2022-08-08T09:44:54.560Z,56.84
2022-08-08T09:45:55.057Z,61.28
2022-08-08T09:46:57.425Z,64.04
2022-08-08T09:48:09.694Z,68.69
2022-08-08T09:48:53.745Z,61.65
2022-08-08T09:49:52.706Z,66.10
2022-08-08T09:50:54.968Z,69.52
2022-08-08T09:52:07.419Z,69.58
2022-08-08T09:52:59.434Z,64.52
2022-08-08T09:54:06.902Z,67.41
2022-08-08T09:54:53.663Z,63.51
2022-08-08T09:56:04.115Z,64.79
2022-08-08T09:56:53.630Z,59.84
2022-08-08T09:57:55.901Z,64.32
2022-08-08T09:58:52.606Z,62.12
2022-08-08T10:00:29.937Z,61.04
2022-08-08T10:00:56.932Z,52.40
2022-08-08T10:01:59.505Z,64.22
2022-08-08T10:02:54.441Z,68.07
2022-08-08T10:03:55.808Z,66.20
2022-08-08T10:04:52.830Z,65.09
2022-08-08T10:05:52.642Z,69.65
2022-08-08T10:06:52.806Z,63.98
2022-08-08T10:07:59.949Z,60.28
2022-08-08T10:08:53.578Z,61.86
2022-08-08T10:09:59.478Z,62.20
2022-08-08T10:10:53.547Z,59.55
2022-08-08T10:12:27.834Z,65.35
2022-08-08T10:13:30.049Z,66.02
2022-08-08T10:13:57.474Z,66.09
2022-08-08T10:14:52.500Z,63.80
2022-08-08T10:16:00.547Z,67.64
2022-08-08T10:16:53.512Z,59.71
2022-08-08T10:18:06.503Z,66.63
2022-08-08T10:18:55.470Z,63.71
2022-08-08T10:19:58.311Z,62.98
2022-08-08T10:21:00.608Z,67.40
2022-08-08T10:21:53.475Z,62.65
2022-08-08T10:22:52.454Z,61.78
2022-08-08T10:23:58.246Z,65.87
2022-08-08T10:24:54.438Z,62.21
2022-08-08T10:25:57.015Z,64.88
2022-08-08T10:26:59.528Z,63.34
2022-08-08T10:27:53.432Z,59.99
2022-08-08T10:28:53.893Z,69.92
2022-08-08T10:29:58.384Z,69.19
2022-08-08T10:30:59.717Z,65.64
2022-08-08T10:31:53.397Z,62.71
2022-08-08T10:32:53.301Z,63.64
2022-08-08T10:34:19.010Z,63.50
2022-08-08T10:35:00.299Z,55.90
2022-08-08T10:36:08.622Z,68.17
2022-08-08T10:36:53.333Z,56.78
2022-08-08T10:37:52.338Z,66.92
2022-08-08T10:38:52.358Z,61.72
2022-08-08T10:39:54.055Z,59.07
2022-08-08T10:40:53.278Z,62.64
2022-08-08T10:41:58.864Z,65.08
2022-08-08T10:42:53.305Z,65.28
2022-08-08T10:43:52.876Z,67.40
2022-08-08T10:44:52.326Z,56.38
2022-08-08T10:45:57.112Z,65.33
2022-08-08T10:46:53.310Z,60.50
2022-08-08T10:47:55.189Z,65.25
2022-08-08T10:48:57.103Z,64.64
2022-08-08T10:50:01.369Z,65.77
2022-08-08T10:50:53.304Z,61.62
2022-08-08T10:51:52.994Z,62.01
2022-08-08T10:52:52.261Z,67.05
2022-08-08T10:53:56.642Z,60.80
2022-08-08T10:54:53.237Z,63.33
2022-08-08T10:55:52.232Z,57.45
2022-08-08T10:56:52.204Z,61.14
2022-08-08T10:57:53.247Z,61.90
2022-08-08T10:58:54.889Z,63.40
2022-08-08T10:59:52.214Z,66.45
2022-08-08T11:01:01.856Z,61.32
2022-08-08T11:01:54.958Z,63.72
2022-08-08T11:02:52.181Z,62.25
2022-08-08T11:04:00.716Z,61.76
2022-08-08T11:04:54.105Z,60.88
2022-08-08T11:06:00.382Z,66.55
2022-08-08T11:06:53.239Z,66.55
2022-08-08T11:08:37.869Z,62.32
2022-08-08T11:08:53.929Z,61.20
2022-08-08T11:09:52.143Z,63.74
2022-08-08T11:10:52.113Z,61.77
2022-08-08T11:12:05.024Z,65.00
2022-08-08T11:13:06.669Z,66.96
2022-08-08T11:13:59.816Z,67.42
2022-08-08T11:14:53.089Z,67.75
2022-08-08T11:15:59.027Z,61.68
2022-08-08T11:16:53.100Z,66.01
2022-08-08T11:17:58.195Z,67.98
2022-08-08T11:18:53.090Z,62.82
2022-08-08T11:19:52.860Z,61.16
2022-08-08T11:20:52.266Z,63.51
2022-08-08T11:21:55.213Z,61.25
2022-08-08T11:22:52.890Z,65.12
2022-08-08T11:24:02.125Z,63.28
2022-08-08T11:24:53.042Z,62.57
2022-08-08T11:25:57.398Z,65.86
2022-08-08T11:26:56.488Z,64.35
2022-08-08T11:27:52.017Z,60.45
2022-08-08T11:28:51.993Z,62.68
2022-08-08T11:30:20.522Z,66.13
2022-08-08T11:30:53.101Z,66.76
2022-08-08T11:31:52.015Z,64.31
2022-08-08T11:32:52.962Z,61.71
2022-08-08T11:33:59.501Z,52.27
2022-08-08T11:35:08.876Z,68.49
2022-08-08T11:35:53.970Z,58.99
2022-08-08T11:36:51.937Z,63.10
2022-08-08T11:38:39.056Z,66.05
2022-08-08T11:38:54.963Z,63.37
2022-08-08T11:39:57.351Z,65.07
2022-08-08T11:40:53.084Z,64.59
2022-08-08T11:41:52.943Z,66.46
2022-08-08T11:42:51.904Z,63.23
2022-08-08T11:43:51.924Z,59.05
2022-08-08T11:44:51.931Z,65.12
2022-08-08T11:46:10.005Z,60.58
2022-08-08T11:46:54.346Z,62.22
2022-08-08T11:48:02.796Z,61.73
2022-08-08T11:48:52.919Z,63.93
2022-08-08T11:49:51.849Z,63.46
2022-08-08T11:50:52.546Z,65.47
2022-08-08T11:51:52.451Z,54.70
2022-08-08T11:52:51.880Z,68.34
2022-08-08T11:53:59.123Z,68.23
2022-08-08T11:54:52.847Z,60.81
2022-08-08T11:55:51.816Z,66.58
2022-08-08T11:56:56.450Z,65.69
2022-08-08T11:57:54.927Z,64.32
2022-08-08T11:58:54.914Z,57.49
2022-08-08T12:00:00.613Z,63.24
2022-08-08T12:00:53.547Z,57.62
2022-08-08T12:01:51.784Z,69.32
2022-08-08T12:02:52.814Z,64.46
2022-08-08T12:03:54.955Z,66.27
2022-08-08T12:04:52.773Z,64.29
2022-08-08T12:05:51.762Z,65.69
2022-08-08T12:06:51.731Z,65.81
2022-08-08T12:07:51.994Z,64.87
2022-08-08T12:08:51.743Z,62.58
2022-08-08T12:09:59.511Z,67.47
2022-08-08T12:10:52.705Z,64.70
2022-08-08T12:11:51.701Z,66.74
2022-08-08T12:12:54.577Z,66.39
2022-08-08T12:14:03.830Z,69.27
2022-08-08T12:14:54.703Z,63.72
2022-08-08T12:15:51.679Z,64.64
2022-08-08T12:16:51.718Z,59.27
2022-08-08T12:17:52.473Z,64.12
2022-08-08T12:18:51.665Z,56.40
2022-08-08T12:19:54.011Z,66.43
2022-08-08T12:20:53.307Z,64.66
2022-08-08T12:22:00.267Z,62.56
2022-08-08T12:22:53.192Z,62.93
2022-08-08T12:24:00.185Z,62.70
2022-08-08T12:24:56.195Z,63.56
2022-08-08T12:25:52.809Z,65.66
2022-08-08T12:26:51.596Z,63.33
2022-08-08T12:27:52.589Z,61.25
2022-08-08T12:28:52.589Z,62.20
2022-08-08T12:29:51.617Z,66.16
2022-08-08T12:30:51.605Z,60.12
2022-08-08T12:31:53.143Z,64.44
2022-08-08T12:32:51.555Z,61.12
2022-08-08T12:34:02.151Z,65.57
2022-08-08T12:34:53.853Z,64.07
2022-08-08T12:35:53.239Z,64.77
2022-08-08T12:36:51.546Z,65.11
2022-08-08T12:38:02.758Z,58.88
2022-08-08T12:38:55.527Z,56.72
2022-08-08T12:40:01.898Z,63.60
2022-08-08T12:40:56.536Z,65.37
2022-08-08T12:41:57.277Z,61.74
2022-08-08T12:42:52.545Z,68.69
2022-08-08T12:43:59.957Z,66.79
2022-08-08T12:44:52.480Z,67.76
2022-08-08T12:46:00.097Z,65.57
2022-08-08T12:46:54.999Z,65.53
2022-08-08T12:48:04.988Z,63.62
2022-08-08T12:49:20.698Z,65.81
2022-08-08T12:49:53.486Z,64.85
2022-08-08T12:50:51.461Z,68.24
2022-08-08T12:51:58.516Z,65.03
2022-08-08T12:52:52.465Z,65.53
2022-08-08T12:53:51.413Z,63.11
2022-08-08T12:54:51.416Z,67.38
2022-08-08T12:56:18.370Z,66.83
2022-08-08T12:56:53.407Z,65.55
2022-08-08T12:57:56.810Z,55.76
2022-08-08T12:58:54.453Z,64.21
2022-08-08T13:00:04.444Z,64.44
2022-08-08T13:00:52.398Z,65.51
2022-08-08T13:01:51.491Z,68.63
2022-08-08T13:02:53.162Z,61.42
2022-08-08T13:03:52.090Z,61.90
2022-08-08T13:04:51.455Z,63.54
2022-08-08T13:06:04.387Z,66.46
2022-08-08T13:06:52.353Z,66.31
2022-08-08T13:08:03.580Z,63.94
2022-08-08T13:08:53.524Z,65.81
2022-08-08T13:10:05.339Z,63.66
2022-08-08T13:10:56.893Z,64.19
2022-08-08T13:12:24.507Z,58.36
2022-08-08T13:12:52.299Z,64.82
2022-08-08T13:13:51.328Z,70.24
2022-08-08T13:14:52.922Z,64.39
2022-08-08T13:15:54.741Z,65.45
2022-08-08T13:16:51.274Z,60.93
2022-08-08T13:18:08.480Z,66.84
2022-08-08T13:18:57.365Z,63.59
2022-08-08T13:20:06.733Z,67.81
2022-08-08T13:20:52.364Z,62.33
2022-08-08T13:21:58.389Z,63.07
2022-08-08T13:23:26.926Z,63.49
2022-08-08T13:23:52.222Z,62.88
2022-08-08T13:24:51.239Z,66.72
2022-08-08T13:25:59.375Z,63.61
2022-08-08T13:26:54.965Z,65.88
2022-08-08T13:27:51.505Z,53.16
2022-08-08T13:28:51.187Z,65.35
2022-08-08T13:29:51.189Z,65.49
2022-08-08T13:30:51.377Z,64.25
2022-08-08T13:31:51.216Z,59.39
2022-08-08T13:32:51.161Z,62.24
2022-08-08T13:33:51.162Z,63.27
2022-08-08T13:34:52.414Z,64.11
2022-08-08T13:35:51.204Z,65.02
2022-08-08T13:36:51.716Z,64.47